createdAt,value
2023-09-08T00:00:41.610Z,24.6
2023-09-08T00:01:43.460Z,24.6
2023-09-08T00:02:45.880Z,24.6
2023-09-08T00:03:47.807Z,24.6
2023-09-08T00:04:50.070Z,24.6
2023-09-08T00:05:52.005Z,24.6
2023-09-08T00:06:53.830Z,24.6
2023-09-08T00:07:56.021Z,24.5
2023-09-08T00:08:57.768Z,24.5
2023-09-08T00:09:59.486Z,24.5
2023-09-08T00:11:01.302Z,24.5
2023-09-08T00:12:03.117Z,24.5
2023-09-08T00:13:05.176Z,24.5
2023-09-08T00:14:06.891Z,24.5
2023-09-08T00:15:08.655Z,24.5
2023-09-08T00:16:10.493Z,24.5
2023-09-08T00:17:13.178Z,24.5
2023-09-08T00:18:15.210Z,24.5
2023-09-08T00:19:17.111Z,24.5
2023-09-08T00:20:18.867Z,24.5
2023-09-08T00:21:20.651Z,24.5
2023-09-08T00:22:22.483Z,24.5
2023-09-08T00:23:24.332Z,24.5
2023-09-08T00:24:26.092Z,24.5
2023-09-08T00:25:27.893Z,24.5
2023-09-08T00:26:29.618Z,24.5
2023-09-08T00:27:31.383Z,24.5
2023-09-08T00:28:33.355Z,24.5
2023-09-08T00:29:36.518Z,24.5
2023-09-08T00:30:38.389Z,24.5
2023-09-08T00:31:40.105Z,24.5
2023-09-08T00:32:41.875Z,24.5
2023-09-08T00:33:44.440Z,24.5
2023-09-08T00:34:46.961Z,24.5
2023-09-08T00:35:48.713Z,24.5
2023-09-08T00:36:50.476Z,24.5
2023-09-08T00:37:52.320Z,24.5
2023-09-08T00:38:54.041Z,24.5
2023-09-08T00:39:55.734Z,24.5
2023-09-08T00:40:57.525Z,24.5
2023-09-08T00:41:59.440Z,24.5
2023-09-08T00:43:01.271Z,24.5
2023-09-08T00:44:03.022Z,24.5
2023-09-08T00:45:04.836Z,24.5
2023-09-08T00:46:07.034Z,24.4
2023-09-08T00:47:09.503Z,24.4
2023-09-08T00:48:11.394Z,24.5
2023-09-08T00:49:13.711Z,24.5
2023-09-08T00:50:15.490Z,24.5
2023-09-08T00:51:17.550Z,24.4
2023-09-08T00:52:19.278Z,24.4
2023-09-08T00:53:21.054Z,24.5
2023-09-08T00:54:22.788Z,24.4
2023-09-08T00:55:24.518Z,24.4
2023-09-08T00:56:26.244Z,24.4
2023-09-08T00:57:28.190Z,24.4
2023-09-08T00:58:30.027Z,24.4
2023-09-08T00:59:31.799Z,24.4
2023-09-08T01:00:33.579Z,24.4
2023-09-08T01:01:35.967Z,24.4
2023-09-08T01:02:38.004Z,24.4
2023-09-08T01:03:40.286Z,24.4
2023-09-08T01:04:42.837Z,24.4
2023-09-08T01:05:45.412Z,24.4
2023-09-08T01:06:47.298Z,24.4
2023-09-08T01:07:49.531Z,24.4
2023-09-08T01:08:51.594Z,24.4
2023-09-08T01:09:53.940Z,24.4
2023-09-08T01:10:56.335Z,24.4
2023-09-08T01:11:58.123Z,24.4
2023-09-08T01:13:00.033Z,24.4
2023-09-08T01:14:01.778Z,24.4
2023-09-08T01:15:03.813Z,24.4
2023-09-08T01:16:05.927Z,24.4
2023-09-08T01:17:07.937Z,24.4
2023-09-08T01:18:10.076Z,24.4
2023-09-08T01:19:12.566Z,24.4
2023-09-08T01:20:14.354Z,24.4
2023-09-08T01:21:16.111Z,24.4
2023-09-08T01:22:18.010Z,24.4
2023-09-08T01:23:19.780Z,24.4
2023-09-08T01:24:21.579Z,24.4
2023-09-08T01:25:23.710Z,24.4
2023-09-08T01:26:25.614Z,24.4
2023-09-08T01:27:27.311Z,24.4
2023-09-08T01:28:29.089Z,24.4
2023-09-08T01:29:31.489Z,24.4
2023-09-08T01:30:33.294Z,24.4
2023-09-08T01:31:35.227Z,24.4
2023-09-08T01:32:37.390Z,24.4
2023-09-08T01:33:39.288Z,24.4
2023-09-08T01:34:41.034Z,24.4
2023-09-08T01:35:42.777Z,24.4
2023-09-08T01:36:44.475Z,24.4
2023-09-08T01:37:46.197Z,24.3
2023-09-08T01:38:47.990Z,24.3
2023-09-08T01:39:50.091Z,24.4
2023-09-08T01:40:51.821Z,24.3
2023-09-08T01:41:53.630Z,24.3
2023-09-08T01:42:55.399Z,24.4
2023-09-08T01:43:57.226Z,24.3
2023-09-08T01:44:58.947Z,24.3
2023-09-08T01:46:00.678Z,24.3
2023-09-08T01:47:02.956Z,24.3
2023-09-08T01:48:06.852Z,24.3
2023-09-08T01:49:08.948Z,24.3
2023-09-08T01:50:10.934Z,24.3
2023-09-08T01:51:12.741Z,24.3
2023-09-08T01:52:14.503Z,24.3
2023-09-08T01:53:16.765Z,24.3
2023-09-08T01:54:18.540Z,24.3
2023-09-08T01:55:20.365Z,24.3
2023-09-08T01:56:22.144Z,24.3
2023-09-08T01:57:23.870Z,24.3
2023-09-08T01:58:25.614Z,24.3
2023-09-08T01:59:27.790Z,24.3
2023-09-08T02:00:29.650Z,24.3
2023-09-08T02:01:31.469Z,24.3
2023-09-08T02:02:33.580Z,24.3
2023-09-08T02:03:35.496Z,24.3
2023-09-08T02:04:37.304Z,24.3
2023-09-08T02:05:39.546Z,24.3
2023-09-08T02:06:41.849Z,24.3
2023-09-08T02:07:43.652Z,24.3
2023-09-08T02:08:45.685Z,24.3
2023-09-08T02:09:47.423Z,24.3
2023-09-08T02:10:49.276Z,24.3
2023-09-08T02:11:51.015Z,24.3
2023-09-08T02:12:52.754Z,24.3
2023-09-08T02:13:55.961Z,24.3
2023-09-08T02:15:00.410Z,24.3
2023-09-08T02:16:02.991Z,24.3
2023-09-08T02:17:05.490Z,24.3
2023-09-08T02:18:07.278Z,24.3
2023-09-08T02:19:09.190Z,24.3
2023-09-08T02:20:13.404Z,24.3
2023-09-08T02:21:15.176Z,24.3
2023-09-08T02:22:17.173Z,24.3
2023-09-08T02:23:18.884Z,24.3
2023-09-08T02:24:20.670Z,24.3
2023-09-08T02:25:22.876Z,24.3
2023-09-08T02:26:24.711Z,24.3
2023-09-08T02:27:26.435Z,24.3
2023-09-08T02:28:28.238Z,24.3
2023-09-08T02:29:30.344Z,24.3
2023-09-08T02:30:32.086Z,24.3
2023-09-08T02:31:34.377Z,24.3
2023-09-08T02:32:36.097Z,24.3
2023-09-08T02:33:38.193Z,24.3
2023-09-08T02:34:40.308Z,24.2
2023-09-08T02:35:42.114Z,24.2
2023-09-08T02:36:43.904Z,24.2
2023-09-08T02:37:46.060Z,24.2
2023-09-08T02:38:47.815Z,24.2
2023-09-08T02:39:49.549Z,24.2
2023-09-08T02:40:51.338Z,24.2
2023-09-08T02:41:53.153Z,24.2
2023-09-08T02:42:54.920Z,24.2
2023-09-08T02:43:56.776Z,24.2
2023-09-08T02:44:58.477Z,24.2
2023-09-08T02:46:00.276Z,24.2
2023-09-08T02:47:02.630Z,24.2
2023-09-08T02:48:04.514Z,24.2
2023-09-08T02:49:06.748Z,24.2
2023-09-08T02:50:08.612Z,24.2
2023-09-08T02:51:10.385Z,24.2
2023-09-08T02:52:12.122Z,24.2
2023-09-08T02:53:13.795Z,24.2
2023-09-08T02:54:15.589Z,24.2
2023-09-08T02:55:17.390Z,24.2
2023-09-08T02:56:19.149Z,24.2
2023-09-08T02:57:20.993Z,24.2
2023-09-08T02:58:22.763Z,24.2
2023-09-08T02:59:24.684Z,24.2
2023-09-08T03:00:26.478Z,24.2
2023-09-08T03:01:28.258Z,24.2
2023-09-08T03:02:30.697Z,24.2
2023-09-08T03:03:33.320Z,24.2
2023-09-08T03:04:35.882Z,24.2
2023-09-08T03:05:37.973Z,24.2
2023-09-08T03:06:40.321Z,24.2
2023-09-08T03:07:42.081Z,24.2
2023-09-08T03:08:44.183Z,24.2
2023-09-08T03:09:45.985Z,24.2
2023-09-08T03:10:47.754Z,24.2
2023-09-08T03:11:49.472Z,24.2
2023-09-08T03:12:51.483Z,24.1
2023-09-08T03:13:53.291Z,24.1
2023-09-08T03:14:55.122Z,24.1
2023-09-08T03:15:56.867Z,24.1
2023-09-08T03:16:58.961Z,24.1
2023-09-08T03:18:00.905Z,24.1
2023-09-08T03:19:03.212Z,24.1
2023-09-08T03:20:04.951Z,24.1
2023-09-08T03:21:06.948Z,24.1
2023-09-08T03:22:08.633Z,24
2023-09-08T03:23:10.497Z,24
2023-09-08T03:24:12.247Z,24
2023-09-08T03:25:13.995Z,24
2023-09-08T03:26:15.704Z,24
2023-09-08T03:27:17.473Z,24
2023-09-08T03:28:19.256Z,24.1
2023-09-08T03:29:20.918Z,24
2023-09-08T03:30:22.796Z,24
2023-09-08T03:31:24.721Z,24
2023-09-08T03:32:27.413Z,24
2023-09-08T03:33:30.075Z,24
2023-09-08T03:34:32.752Z,24
2023-09-08T03:35:35.008Z,24
2023-09-08T03:36:36.868Z,24.1
2023-09-08T03:37:39.122Z,24.1
2023-09-08T03:38:40.820Z,24
2023-09-08T03:39:42.584Z,24.1
2023-09-08T03:40:44.451Z,24
2023-09-08T03:41:46.217Z,24
2023-09-08T03:42:47.979Z,24
2023-09-08T03:43:50.227Z,24
2023-09-08T03:44:51.972Z,24
2023-09-08T03:45:53.681Z,24
2023-09-08T03:46:56.288Z,24
2023-09-08T03:47:57.999Z,24
2023-09-08T03:49:00.068Z,24.1
2023-09-08T03:50:01.813Z,24.1
2023-09-08T03:51:04.082Z,24
2023-09-08T03:52:05.887Z,24
2023-09-08T03:53:07.675Z,24
2023-09-08T03:54:09.846Z,24
2023-09-08T03:55:11.635Z,24
2023-09-08T03:56:13.435Z,24
2023-09-08T03:57:15.335Z,24
2023-09-08T03:58:17.153Z,24
2023-09-08T03:59:18.959Z,24
2023-09-08T04:00:20.730Z,23.9
2023-09-08T04:01:22.805Z,23.9
2023-09-08T04:02:24.794Z,23.9
2023-09-08T04:03:27.034Z,23.9
2023-09-08T04:04:31.514Z,23.9
2023-09-08T04:05:33.236Z,23.9
2023-09-08T04:06:35.399Z,23.9
2023-09-08T04:07:37.175Z,24
2023-09-08T04:08:39.128Z,24
2023-09-08T04:09:40.846Z,24
2023-09-08T04:10:43.769Z,23.9
2023-09-08T04:11:45.606Z,23.9
2023-09-08T04:12:47.658Z,23.9
2023-09-08T04:13:49.546Z,23.8
2023-09-08T04:14:51.352Z,23.9
2023-09-08T04:15:53.522Z,23.9
2023-09-08T04:16:55.536Z,23.8
2023-09-08T04:17:57.386Z,23.8
2023-09-08T04:18:59.748Z,23.8
2023-09-08T04:20:01.804Z,23.9
2023-09-08T04:21:03.682Z,23.9
2023-09-08T04:22:05.821Z,23.9
2023-09-08T04:23:07.596Z,23.9
2023-09-08T04:24:09.360Z,23.9
2023-09-08T04:25:11.297Z,23.9
2023-09-08T04:26:13.075Z,23.9
2023-09-08T04:27:15.816Z,23.9
2023-09-08T04:28:17.818Z,23.9
2023-09-08T04:29:19.620Z,23.9
2023-09-08T04:30:21.510Z,23.8
2023-09-08T04:31:23.964Z,23.8
2023-09-08T04:32:25.976Z,23.8
2023-09-08T04:33:27.853Z,23.8
2023-09-08T04:34:30.133Z,23.7
2023-09-08T04:35:31.920Z,23.7
2023-09-08T04:36:33.659Z,23.7
2023-09-08T04:37:35.414Z,23.7
2023-09-08T04:38:37.246Z,23.6
2023-09-08T04:39:39.188Z,23.6
2023-09-08T04:40:41.180Z,23.5
2023-09-08T04:41:42.955Z,23.5
2023-09-08T04:42:44.922Z,23.6
2023-09-08T04:43:47.042Z,23.6
2023-09-08T04:44:48.807Z,23.6
2023-09-08T04:45:50.648Z,23.6
2023-09-08T04:46:52.377Z,23.6
2023-09-08T04:47:54.296Z,23.7
2023-09-08T04:48:56.546Z,23.8
2023-09-08T04:49:58.372Z,23.9
2023-09-08T04:51:00.785Z,23.9
2023-09-08T04:52:02.553Z,23.9
2023-09-08T04:53:04.493Z,24
2023-09-08T04:54:06.267Z,24
2023-09-08T04:55:08.032Z,24
2023-09-08T04:56:09.719Z,24
2023-09-08T04:57:20.633Z,24.1
2023-09-08T04:58:25.961Z,24.1
2023-09-08T04:59:27.818Z,24.2
2023-09-08T05:00:29.724Z,24.2
2023-09-08T05:01:31.635Z,24.2
2023-09-08T05:02:33.689Z,24.2
2023-09-08T05:03:36.030Z,24.2
2023-09-08T05:04:38.591Z,24.2
2023-09-08T05:05:40.369Z,24.2
2023-09-08T05:06:42.585Z,24.2
2023-09-08T05:07:44.313Z,24.3
2023-09-08T05:08:46.097Z,24.3
2023-09-08T05:09:48.122Z,24.3
2023-09-08T05:10:49.909Z,24.3
2023-09-08T05:11:51.665Z,24.3
2023-09-08T05:12:54.028Z,24.2
2023-09-08T05:13:55.775Z,24.2
2023-09-08T05:14:57.503Z,24.1
2023-09-08T05:15:59.421Z,24.2
2023-09-08T05:17:01.245Z,24.1
2023-09-08T05:18:03.125Z,24.1
2023-09-08T05:19:05.244Z,24.1
2023-09-08T05:20:07.335Z,24.2
2023-09-08T05:21:09.367Z,24.3
2023-09-08T05:22:11.460Z,24.3
2023-09-08T05:23:13.265Z,24.3
2023-09-08T05:24:15.007Z,24.4
2023-09-08T05:25:17.139Z,24.4
2023-09-08T05:26:19.401Z,24.5
2023-09-08T05:27:21.168Z,24.5
2023-09-08T05:28:23.340Z,24.6
2023-09-08T05:29:25.409Z,24.7
2023-09-08T05:30:27.128Z,24.7
2023-09-08T05:31:28.945Z,24.8
2023-09-08T05:32:31.320Z,24.8
2023-09-08T05:33:33.721Z,24.9
2023-09-08T05:34:35.619Z,24.9
2023-09-08T05:35:37.382Z,25
2023-09-08T05:36:39.404Z,25
2023-09-08T05:37:41.308Z,25.1
2023-09-08T05:38:43.049Z,25.1
2023-09-08T05:39:44.993Z,25.2
2023-09-08T05:40:46.939Z,25.2
2023-09-08T05:41:48.831Z,25.2
2023-09-08T05:42:50.581Z,25.2
2023-09-08T05:43:52.287Z,25.2
2023-09-08T05:44:54.091Z,25.3
2023-09-08T05:45:55.849Z,25.3
2023-09-08T05:46:57.711Z,25.4
2023-09-08T05:48:00.193Z,25.4
2023-09-08T05:49:02.559Z,25.5
2023-09-08T05:50:04.596Z,25.5
2023-09-08T05:51:06.377Z,25.5
2023-09-08T05:52:08.144Z,25.6
2023-09-08T05:53:10.244Z,25.6
2023-09-08T05:54:12.386Z,25.6
2023-09-08T05:55:14.202Z,25.7
2023-09-08T05:56:16.054Z,25.8
2023-09-08T05:57:18.041Z,25.8
2023-09-08T05:58:19.786Z,25.8
2023-09-08T05:59:21.697Z,25.8
2023-09-08T06:00:23.433Z,25.8
2023-09-08T06:01:25.413Z,25.9
2023-09-08T06:02:27.489Z,25.9
2023-09-08T06:03:29.841Z,25.9
2023-09-08T06:04:32.582Z,26
2023-09-08T06:05:34.708Z,26
2023-09-08T06:06:36.439Z,26
2023-09-08T06:07:39.017Z,26
2023-09-08T06:08:45.293Z,26
2023-09-08T06:09:47.058Z,26.1
2023-09-08T06:10:48.882Z,26.1
2023-09-08T06:11:50.626Z,26.1
2023-09-08T06:12:52.419Z,26.1
2023-09-08T06:13:54.464Z,26
2023-09-08T06:14:56.218Z,26.1
2023-09-08T06:15:57.957Z,26.1
2023-09-08T06:16:59.744Z,26.1
2023-09-08T06:18:01.625Z,26.1
2023-09-08T06:19:03.747Z,26.1
2023-09-08T06:20:08.345Z,26.1
2023-09-08T06:21:10.108Z,26.2
2023-09-08T06:22:12.366Z,26.2
2023-09-08T06:23:14.137Z,26.3
2023-09-08T06:24:15.859Z,26.3
2023-09-08T06:25:17.551Z,26.4
2023-09-08T06:26:19.287Z,26.4
2023-09-08T06:27:21.091Z,26.4
2023-09-08T06:28:22.827Z,26.4
2023-09-08T06:29:24.528Z,26.4
2023-09-08T06:30:26.263Z,26.5
2023-09-08T06:31:28.044Z,26.5
2023-09-08T06:32:30.235Z,26.6
2023-09-08T06:33:32.080Z,26.6
2023-09-08T06:34:34.846Z,26.5
2023-09-08T06:35:37.052Z,26.5
2023-09-08T06:36:38.749Z,26.5
2023-09-08T06:37:40.991Z,26.5
2023-09-08T06:38:42.683Z,26.4
2023-09-08T06:39:44.432Z,26.5
2023-09-08T06:40:46.302Z,26.5
2023-09-08T06:41:48.095Z,26.6
2023-09-08T06:42:49.871Z,26.6
2023-09-08T06:43:51.647Z,26.6
2023-09-08T06:44:53.419Z,26.7
2023-09-08T06:45:55.180Z,26.7
2023-09-08T06:46:57.396Z,26.6
2023-09-08T06:47:59.322Z,26.6
2023-09-08T06:49:04.080Z,26.6
2023-09-08T06:50:07.241Z,26.7
2023-09-08T06:51:09.146Z,26.7
2023-09-08T06:52:11.477Z,26.7
2023-09-08T06:53:13.257Z,26.7
2023-09-08T06:54:15.258Z,26.7
2023-09-08T06:55:16.968Z,26.7
2023-09-08T06:56:18.721Z,26.8
2023-09-08T06:57:20.512Z,26.8
2023-09-08T06:58:22.316Z,26.8
2023-09-08T06:59:24.133Z,26.8
2023-09-08T07:00:25.881Z,26.8
2023-09-08T07:01:28.039Z,26.8
2023-09-08T07:02:30.726Z,26.9
2023-09-08T07:03:33.756Z,26.9
2023-09-08T07:04:36.975Z,26.9
2023-09-08T07:05:39.592Z,26.9
2023-09-08T07:06:41.500Z,26.9
2023-09-08T07:07:43.932Z,26.9
2023-09-08T07:08:45.859Z,27
2023-09-08T07:09:47.590Z,27
2023-09-08T07:10:49.338Z,26.9
2023-09-08T07:11:51.436Z,27
2023-09-08T07:12:53.189Z,27
2023-09-08T07:13:54.937Z,27
2023-09-08T07:14:56.696Z,27
2023-09-08T07:15:58.414Z,27
2023-09-08T07:17:00.478Z,27
2023-09-08T07:18:05.825Z,27
2023-09-08T07:19:08.355Z,27
2023-09-08T07:20:10.332Z,27.1
2023-09-08T07:21:12.174Z,27.1
2023-09-08T07:22:13.916Z,27
2023-09-08T07:23:15.672Z,27
2023-09-08T07:24:17.394Z,27
2023-09-08T07:25:19.117Z,27
2023-09-08T07:26:20.893Z,27
2023-09-08T07:27:22.672Z,27.1
2023-09-08T07:28:24.452Z,27.1
2023-09-08T07:29:26.181Z,27.1
2023-09-08T07:30:28.024Z,27.1
2023-09-08T07:31:30.697Z,27.1
2023-09-08T07:32:32.557Z,27
2023-09-08T07:33:34.526Z,27
2023-09-08T07:34:36.513Z,27
2023-09-08T07:35:38.282Z,27
2023-09-08T07:36:40.311Z,27
2023-09-08T07:37:42.233Z,27
2023-09-08T07:38:44.135Z,27
2023-09-08T07:39:45.867Z,27
2023-09-08T07:40:47.633Z,27
2023-09-08T07:41:49.355Z,27.1
2023-09-08T07:42:51.126Z,27.1
2023-09-08T07:43:53.445Z,27
2023-09-08T07:44:55.527Z,27
2023-09-08T07:45:57.316Z,27
2023-09-08T07:46:59.355Z,27.1
2023-09-08T07:48:01.161Z,27.1
2023-09-08T07:49:03.514Z,27.2
2023-09-08T07:50:06.234Z,27.1
2023-09-08T07:51:08.013Z,27.1
2023-09-08T07:52:09.834Z,27.1
2023-09-08T07:53:11.553Z,27.1
2023-09-08T07:54:13.262Z,27.2
2023-09-08T07:55:14.933Z,27.2
2023-09-08T07:56:17.687Z,27.2
2023-09-08T07:57:19.552Z,27.2
2023-09-08T07:58:21.245Z,27.2
2023-09-08T07:59:22.998Z,27.2
2023-09-08T08:00:24.937Z,27.2
2023-09-08T08:01:26.822Z,27.2
2023-09-08T08:02:29.478Z,27.2
2023-09-08T08:03:31.721Z,27.2
2023-09-08T08:04:33.803Z,27.2
2023-09-08T08:05:35.759Z,27.1
2023-09-08T08:06:37.717Z,27.1
2023-09-08T08:07:39.591Z,27.1
2023-09-08T08:08:41.406Z,27.1
2023-09-08T08:09:43.441Z,27.1
2023-09-08T08:10:45.204Z,27.1
2023-09-08T08:11:46.991Z,27.1
2023-09-08T08:12:48.976Z,27.1
2023-09-08T08:13:50.712Z,27.1
2023-09-08T08:14:52.518Z,27.1
2023-09-08T08:15:54.521Z,27.1
2023-09-08T08:16:56.488Z,27.1
2023-09-08T08:17:58.315Z,27.1
2023-09-08T08:19:00.626Z,27.1
2023-09-08T08:20:02.961Z,27.1
2023-09-08T08:21:04.799Z,27.1
2023-09-08T08:22:07.079Z,27.1
2023-09-08T08:23:09.693Z,27.1
2023-09-08T08:24:11.613Z,27.1
2023-09-08T08:25:13.708Z,27
2023-09-08T08:26:15.493Z,27
2023-09-08T08:27:17.217Z,27
2023-09-08T08:28:19.133Z,27
2023-09-08T08:29:20.883Z,27
2023-09-08T08:30:22.627Z,27
2023-09-08T08:31:24.674Z,27
2023-09-08T08:32:26.805Z,27
2023-09-08T08:33:28.850Z,27
2023-09-08T08:34:30.703Z,27
2023-09-08T08:35:32.480Z,27
2023-09-08T08:36:34.228Z,27
2023-09-08T08:37:36.454Z,26.9
2023-09-08T08:38:38.409Z,26.9
2023-09-08T08:39:40.099Z,26.9
2023-09-08T08:40:41.986Z,26.9
2023-09-08T08:41:43.759Z,26.9
2023-09-08T08:42:45.505Z,26.9
2023-09-08T08:43:47.309Z,26.9
2023-09-08T08:44:49.081Z,26.9
2023-09-08T08:45:50.835Z,26.9
2023-09-08T08:46:52.901Z,26.9
2023-09-08T08:47:54.808Z,26.9
2023-09-08T08:48:56.910Z,26.9
2023-09-08T08:49:58.604Z,26.9
2023-09-08T08:51:00.318Z,26.9
2023-09-08T08:52:02.036Z,26.9
2023-09-08T08:53:03.899Z,26.9
2023-09-08T08:54:05.742Z,26.8
2023-09-08T08:55:07.492Z,26.8
2023-09-08T08:56:09.261Z,26.8
2023-09-08T08:57:11.146Z,26.8
2023-09-08T08:58:13.215Z,26.8
2023-09-08T08:59:15.078Z,26.8
2023-09-08T09:00:16.942Z,26.8
2023-09-08T09:01:19.197Z,26.8
2023-09-08T09:02:21.240Z,26.8
2023-09-08T09:03:23.155Z,26.8
2023-09-08T09:04:25.422Z,26.8
2023-09-08T09:05:27.455Z,26.7
2023-09-08T09:06:29.381Z,26.7
2023-09-08T09:07:31.178Z,26.7
2023-09-08T09:08:33.416Z,26.8
2023-09-08T09:09:36.995Z,26.8
2023-09-08T09:10:39.006Z,26.8
2023-09-08T09:11:40.817Z,26.8
2023-09-08T09:12:42.829Z,26.8
2023-09-08T09:13:44.572Z,26.8
2023-09-08T09:14:46.345Z,26.8
2023-09-08T09:15:48.596Z,26.8
2023-09-08T09:16:50.485Z,26.8
2023-09-08T09:17:53.021Z,26.9
2023-09-08T09:18:58.881Z,26.9
2023-09-08T09:20:00.985Z,26.9
2023-09-08T09:21:04.972Z,26.9
2023-09-08T09:22:06.675Z,26.9
2023-09-08T09:23:08.479Z,26.9
2023-09-08T09:24:10.456Z,26.9
2023-09-08T09:25:12.921Z,26.9
2023-09-08T09:26:15.630Z,26.9
2023-09-08T09:27:17.882Z,27
2023-09-08T09:28:19.785Z,27
2023-09-08T09:29:21.582Z,27
2023-09-08T09:30:23.408Z,27
2023-09-08T09:31:25.532Z,27
2023-09-08T09:32:27.995Z,27
2023-09-08T09:33:30.069Z,27.1
2023-09-08T09:34:32.722Z,27.1
2023-09-08T09:35:34.496Z,27.1
2023-09-08T09:36:36.310Z,27.1
2023-09-08T09:37:38.129Z,27.1
2023-09-08T09:38:40.291Z,27.1
2023-09-08T09:39:42.088Z,27.1
2023-09-08T09:40:44.569Z,27.1
2023-09-08T09:41:46.372Z,27.1
2023-09-08T09:42:48.176Z,27.1
2023-09-08T09:43:50.297Z,27.1
2023-09-08T09:44:52.085Z,27.1
2023-09-08T09:45:54.051Z,27.1
2023-09-08T09:46:56.399Z,27.1
2023-09-08T09:47:58.241Z,27.1
2023-09-08T09:49:00.182Z,27.1
2023-09-08T09:50:01.957Z,27.1
2023-09-08T09:51:03.708Z,27.1
2023-09-08T09:52:05.501Z,27.1
2023-09-08T09:53:07.296Z,27
2023-09-08T09:54:09.009Z,27
2023-09-08T09:55:10.970Z,27
2023-09-08T09:56:12.916Z,27
2023-09-08T09:57:14.648Z,27.1
2023-09-08T09:58:16.787Z,27.1
2023-09-08T09:59:18.973Z,27.1
2023-09-08T10:00:20.887Z,27.1
2023-09-08T10:01:23.105Z,27.1
2023-09-08T10:02:25.278Z,27.1
2023-09-08T10:03:27.428Z,27.1
2023-09-08T10:04:30.411Z,27.1
2023-09-08T10:05:32.208Z,27.2
2023-09-08T10:06:34.000Z,27.2
2023-09-08T10:07:36.233Z,27.2
2023-09-08T10:08:38.262Z,27.2
2023-09-08T10:09:40.388Z,27.2
2023-09-08T10:10:42.270Z,27.2
2023-09-08T10:11:44.141Z,27.2
2023-09-08T10:12:46.684Z,27.2
2023-09-08T10:13:49.603Z,27.2
2023-09-08T10:14:51.462Z,27.2
2023-09-08T10:15:53.581Z,27.2
2023-09-08T10:16:55.418Z,27.2
2023-09-08T10:17:57.423Z,27.2
2023-09-08T10:19:00.160Z,27.2
2023-09-08T10:20:02.352Z,27.2
2023-09-08T10:21:04.144Z,27.2
2023-09-08T10:22:06.032Z,27.2
2023-09-08T10:23:08.195Z,27.2
2023-09-08T10:24:10.025Z,27.3
2023-09-08T10:25:12.209Z,27.3
2023-09-08T10:26:13.990Z,27.3
2023-09-08T10:27:15.791Z,27.2
2023-09-08T10:28:17.842Z,27.2
2023-09-08T10:29:19.658Z,27.2
2023-09-08T10:30:21.631Z,27.2
2023-09-08T10:31:23.862Z,27.2
2023-09-08T10:32:26.155Z,27.3
2023-09-08T10:33:28.583Z,27.3
2023-09-08T10:34:30.627Z,27.3
2023-09-08T10:35:32.468Z,27.3
2023-09-08T10:36:36.640Z,27.2
2023-09-08T10:37:38.823Z,27.2
2023-09-08T10:38:40.515Z,27.2
2023-09-08T10:39:42.253Z,27.2
2023-09-08T10:40:44.603Z,27.2
2023-09-08T10:41:46.423Z,27.2
2023-09-08T10:42:48.416Z,27.2
2023-09-08T10:43:50.605Z,27.2
2023-09-08T10:44:52.634Z,27.1
2023-09-08T10:45:54.460Z,27.1
2023-09-08T10:46:56.583Z,27.1
2023-09-08T10:47:58.613Z,27.1
2023-09-08T10:49:00.842Z,27.1
2023-09-08T10:50:02.828Z,27.2
2023-09-08T10:51:04.597Z,27.2
2023-09-08T10:52:06.442Z,27.2
2023-09-08T10:53:09.918Z,27.2
2023-09-08T10:54:11.627Z,27.2
2023-09-08T10:55:13.426Z,27.2
2023-09-08T10:56:17.953Z,27.2
2023-09-08T10:57:20.590Z,27.2
2023-09-08T10:58:22.575Z,27.2
2023-09-08T10:59:24.329Z,27.1
2023-09-08T11:00:26.204Z,27.1
2023-09-08T11:01:28.184Z,27.1
2023-09-08T11:02:30.593Z,27.1
2023-09-08T11:03:32.894Z,27.1
2023-09-08T11:04:35.449Z,27.1
2023-09-08T11:05:37.657Z,27.1
2023-09-08T11:06:39.433Z,27.1
2023-09-08T11:07:41.225Z,27.1
2023-09-08T11:08:43.332Z,27.1
2023-09-08T11:09:45.459Z,27.1
2023-09-08T11:10:47.219Z,27.1
2023-09-08T11:11:49.077Z,27.1
2023-09-08T11:12:51.364Z,27
2023-09-08T11:13:53.174Z,27
2023-09-08T11:14:54.997Z,27
2023-09-08T11:15:57.194Z,27
2023-09-08T11:16:59.218Z,27
2023-09-08T11:18:01.025Z,26.9
2023-09-08T11:19:03.433Z,26.9
2023-09-08T11:20:05.192Z,26.9
2023-09-08T11:21:07.004Z,26.9
2023-09-08T11:22:08.713Z,26.9
2023-09-08T11:23:10.548Z,26.9
2023-09-08T11:24:12.310Z,26.9
2023-09-08T11:25:14.069Z,27
2023-09-08T11:26:15.856Z,27
2023-09-08T11:27:17.607Z,27
2023-09-08T11:28:19.411Z,27
2023-09-08T11:29:21.874Z,27
2023-09-08T11:30:23.692Z,27
2023-09-08T11:31:25.468Z,27
2023-09-08T11:32:27.534Z,27
2023-09-08T11:33:29.347Z,27.1
2023-09-08T11:34:31.286Z,27.1
2023-09-08T11:35:33.011Z,27.1
2023-09-08T11:36:34.755Z,27.1
2023-09-08T11:37:36.642Z,27.1
2023-09-08T11:38:38.445Z,27.1
2023-09-08T11:39:40.173Z,27.1
2023-09-08T11:40:41.930Z,27.1
2023-09-08T11:41:44.042Z,27.1
2023-09-08T11:42:46.440Z,27.1
2023-09-08T11:43:48.881Z,27.1
2023-09-08T11:44:50.966Z,27.1
2023-09-08T11:45:52.738Z,27.1
2023-09-08T11:46:55.232Z,27.1
2023-09-08T11:47:57.941Z,27.1
2023-09-08T11:49:00.173Z,27.1
2023-09-08T11:50:02.267Z,27.1
2023-09-08T11:51:04.022Z,27.1
2023-09-08T11:52:05.764Z,27.1
2023-09-08T11:53:07.829Z,27.1
2023-09-08T11:54:09.624Z,27.1
2023-09-08T11:55:11.346Z,27.1
2023-09-08T11:56:13.069Z,27
2023-09-08T11:57:14.809Z,27.1
2023-09-08T11:58:16.663Z,27.1
2023-09-08T11:59:18.737Z,27.1
2023-09-08T12:00:21.066Z,27.1
2023-09-08T12:01:22.843Z,27.1
2023-09-08T12:02:25.094Z,27.2
2023-09-08T12:03:27.330Z,27.2
2023-09-08T12:04:29.618Z,27.1
2023-09-08T12:05:31.883Z,27.1
2023-09-08T12:06:33.772Z,27.2
2023-09-08T12:07:35.813Z,27.1
2023-09-08T12:08:37.784Z,27.1
2023-09-08T12:09:40.090Z,27.1
2023-09-08T12:10:42.040Z,27.1
2023-09-08T12:11:43.833Z,27.1
2023-09-08T12:12:45.643Z,27.1
2023-09-08T12:13:47.588Z,27.1
2023-09-08T12:14:49.647Z,27
2023-09-08T12:15:51.518Z,27
2023-09-08T12:16:53.761Z,27
2023-09-08T12:17:55.705Z,27.1
2023-09-08T12:18:57.865Z,27.1
2023-09-08T12:20:00.174Z,27.1
2023-09-08T12:21:01.970Z,27.1
2023-09-08T12:22:03.798Z,27.1
2023-09-08T12:23:06.114Z,27.1
2023-09-08T12:24:07.878Z,27.1
2023-09-08T12:25:09.742Z,27.1
2023-09-08T12:26:11.504Z,27.1
2023-09-08T12:27:13.301Z,27.1
2023-09-08T12:28:15.485Z,27.1
2023-09-08T12:29:17.673Z,27.1
2023-09-08T12:30:19.432Z,27.1
2023-09-08T12:31:21.375Z,27.1
2023-09-08T12:32:23.489Z,27.1
2023-09-08T12:33:25.238Z,27.1
2023-09-08T12:34:27.028Z,27.1
2023-09-08T12:35:31.142Z,27.1
2023-09-08T12:36:35.132Z,27.1
2023-09-08T12:37:36.838Z,27.1
2023-09-08T12:38:38.913Z,27.1
2023-09-08T12:39:40.637Z,27.2
2023-09-08T12:40:42.438Z,27.2
2023-09-08T12:41:44.170Z,27.1
2023-09-08T12:42:49.462Z,27.2
2023-09-08T12:44:29.427Z,27.2
2023-09-08T12:45:31.305Z,27.3
2023-09-08T12:46:33.566Z,27.3
2023-09-08T12:47:35.676Z,27.3
2023-09-08T12:48:37.712Z,27.3
2023-09-08T12:49:40.958Z,27.3
2023-09-08T12:50:45.428Z,27.3
2023-09-08T12:51:47.188Z,27.2
2023-09-08T12:52:49.066Z,27.2
2023-09-08T12:53:54.378Z,27.2
2023-09-08T12:54:57.865Z,27.2
2023-09-08T12:56:04.890Z,27.2
2023-09-08T12:57:07.104Z,27.2
2023-09-08T12:58:09.140Z,27.2
2023-09-08T12:59:10.930Z,27.2
2023-09-08T13:00:12.725Z,27.2
2023-09-08T13:01:15.470Z,27.2
2023-09-08T13:02:17.554Z,27.2
2023-09-08T13:03:19.251Z,27.2
2023-09-08T13:04:20.971Z,27.2
2023-09-08T13:05:22.801Z,27.2
2023-09-08T13:06:24.781Z,27.2
2023-09-08T13:07:28.309Z,27.2
2023-09-08T13:08:30.193Z,27.2
2023-09-08T13:09:32.014Z,27.2
2023-09-08T13:10:34.128Z,27.1
2023-09-08T13:11:36.233Z,27.1
2023-09-08T13:12:37.992Z,27.1
2023-09-08T13:13:40.192Z,27.1
2023-09-08T13:14:41.978Z,27.1
2023-09-08T13:15:43.839Z,27.1
2023-09-08T13:16:46.063Z,27.1
2023-09-08T13:17:48.242Z,27.1
2023-09-08T13:18:50.656Z,27.1
2023-09-08T13:19:52.452Z,27.1
2023-09-08T13:20:54.190Z,27.1
2023-09-08T13:21:56.011Z,27.1
2023-09-08T13:22:57.720Z,27.1
2023-09-08T13:23:59.686Z,27.1
2023-09-08T13:25:01.431Z,27.1
2023-09-08T13:26:03.243Z,27.1
2023-09-08T13:27:04.996Z,27.1
2023-09-08T13:28:06.782Z,27.1
2023-09-08T13:29:09.089Z,27.1
2023-09-08T13:30:11.217Z,27.1
2023-09-08T13:31:13.299Z,27.1
2023-09-08T13:32:15.202Z,27.1
2023-09-08T13:33:17.855Z,27.1
2023-09-08T13:34:19.891Z,27.1
2023-09-08T13:35:21.785Z,27.1
2023-09-08T13:36:23.521Z,27.1
2023-09-08T13:37:25.353Z,27.1
2023-09-08T13:38:27.089Z,27.1
2023-09-08T13:39:28.797Z,27.1
2023-09-08T13:40:30.656Z,27.1
2023-09-08T13:41:32.973Z,27.1
2023-09-08T13:42:35.652Z,27.1
2023-09-08T13:43:37.795Z,27.1
2023-09-08T13:44:39.867Z,27.1
2023-09-08T13:45:43.810Z,27.1
2023-09-08T13:46:45.971Z,27.1
2023-09-08T13:47:48.604Z,27
2023-09-08T13:48:53.324Z,27
2023-09-08T13:50:03.408Z,27
2023-09-08T13:51:13.726Z,27
2023-09-08T13:52:20.283Z,27.1
2023-09-08T13:55:03.381Z,27.1
2023-09-08T13:56:20.252Z,27.1
2023-09-08T13:58:47.813Z,27.2